Time;durP1;ratioP1;P1;durP2;ratioP2;P2;SDS_P1;SDS_P2;PMS_P1;PMS_P2;Temp;Humidity;BMP_temperature;BMP_pressure;BME280_temperature;BME280_humidity;BME280_pressure;Samples;Min_cycle;Max_cycle;Signal;HPM_P1;HPM_P2
2021/11/05 00:00:07;;;;;;;4;2.4;;;;;;;;;;;;;
2021/11/05 00:02:32;;;;;;;3.4;2;;;;;;;;;;;;;
2021/11/05 00:05:02;;;;;;;3;1.9;;;;;;;;;;;;;
2021/11/05 00:07:27;;;;;;;4.3;2.1;;;;;;;;;;;;;
2021/11/05 00:09:52;;;;;;;3.5;2.1;;;;;;;;;;;;;
2021/11/05 00:12:17;;;;;;;3.3;1.7;;;;;;;;;;;;;
2021/11/05 00:14:43;;;;;;;2.6;1.7;;;;;;;;;;;;;
2021/11/05 00:17:08;;;;;;;2.7;1.8;;;;;;;;;;;;;
2021/11/05 00:19:33;;;;;;;2.3;1.7;;;;;;;;;;;;;
2021/11/05 00:21:58;;;;;;;2.7;1.8;;;;;;;;;;;;;
2021/11/05 00:24:24;;;;;;;5.3;2.7;;;;;;;;;;;;;
2021/11/05 00:26:49;;;;;;;4.2;2.6;;;;;;;;;;;;;
2021/11/05 00:29:14;;;;;;;4.5;2.5;;;;;;;;;;;;;
2021/11/05 00:31:39;;;;;;;3.1;2.2;;;;;;;;;;;;;
2021/11/05 00:34:04;;;;;;;5.6;2.4;;;;;;;;;;;;;
2021/11/05 00:36:29;;;;;;;3.2;2;;;;;;;;;;;;;
2021/11/05 00:38:54;;;;;;;4;2.6;;;;;;;;;;;;;
2021/11/05 00:41:20;;;;;;;3.5;2.1;;;;;;;;;;;;;
2021/11/05 00:43:45;;;;;;;3.5;2.3;;;;;;;;;;;;;
2021/11/05 00:46:11;;;;;;;4.2;2.3;;;;;;;;;;;;;
2021/11/05 00:48:35;;;;;;;4.7;2;;;;;;;;;;;;;
2021/11/05 00:51:04;;;;;;;3.2;2;;;;;;;;;;;;;
2021/11/05 00:53:29;;;;;;;1.5;1.4;;;;;;;;;;;;;
2021/11/05 00:55:54;;;;;;;2.4;1.4;;;;;;;;;;;;;
2021/11/05 00:58:19;;;;;;;2.7;1.8;;;;;;;;;;;;;
2021/11/05 01:00:44;;;;;;;2.3;1.5;;;;;;;;;;;;;
2021/11/05 01:03:09;;;;;;;2.3;1.6;;;;;;;;;;;;;
2021/11/05 01:05:36;;;;;;;1.7;1.4;;;;;;;;;;;;;
2021/11/05 01:08:00;;;;;;;1.9;1.6;;;;;;;;;;;;;
2021/11/05 01:10:25;;;;;;;2.2;1.5;;;;;;;;;;;;;
2021/11/05 01:12:51;;;;;;;2.8;1.4;;;;;;;;;;;;;
2021/11/05 01:15:16;;;;;;;1.2;1.1;;;;;;;;;;;;;
2021/11/05 01:17:41;;;;;;;1.9;1.1;;;;;;;;;;;;;
2021/11/05 01:20:06;;;;;;;1.7;1.6;;;;;;;;;;;;;
2021/11/05 01:22:31;;;;;;;3.1;1.9;;;;;;;;;;;;;
2021/11/05 01:24:56;;;;;;;1.5;1.4;;;;;;;;;;;;;
2021/11/05 01:27:21;;;;;;;1.1;1;;;;;;;;;;;;;
2021/11/05 01:29:48;;;;;;;1.2;1.1;;;;;;;;;;;;;
2021/11/05 01:32:13;;;;;;;2;1.2;;;;;;;;;;;;;
2021/11/05 01:34:39;;;;;;;1.2;1.1;;;;;;;;;;;;;
2021/11/05 01:37:04;;;;;;;1.6;1;;;;;;;;;;;;;
2021/11/05 01:39:29;;;;;;;2.4;1.5;;;;;;;;;;;;;
2021/11/05 01:41:56;;;;;;;3.6;2;;;;;;;;;;;;;
2021/11/05 01:44:19;;;;;;;2.9;1.6;;;;;;;;;;;;;
2021/11/05 01:46:44;;;;;;;4.8;2.2;;;;;;;;;;;;;
2021/11/05 01:49:10;;;;;;;3;2;;;;;;;;;;;;;
2021/11/05 01:51:34;;;;;;;3.9;2;;;;;;;;;;;;;
2021/11/05 01:54:00;;;;;;;6.8;1.9;;;;;;;;;;;;;
2021/11/05 01:56:25;;;;;;;2.6;2;;;;;;;;;;;;;
2021/11/05 01:58:50;;;;;;;3.1;1.5;;;;;;;;;;;;;
2021/11/05 02:01:15;;;;;;;1.4;1.3;;;;;;;;;;;;;
2021/11/05 02:03:41;;;;;;;1.6;1.5;;;;;;;;;;;;;
2021/11/05 02:06:06;;;;;;;1.5;1.3;;;;;;;;;;;;;
2021/11/05 02:08:31;;;;;;;1;0.9;;;;;;;;;;;;;
2021/11/05 02:10:56;;;;;;;2.4;1.3;;;;;;;;;;;;;
2021/11/05 02:13:21;;;;;;;1.9;1.4;;;;;;;;;;;;;
2021/11/05 02:15:46;;;;;;;1.7;1.3;;;;;;;;;;;;;
2021/11/05 02:18:11;;;;;;;2.8;1.6;;;;;;;;;;;;;
2021/11/05 02:20:37;;;;;;;1.4;1.3;;;;;;;;;;;;;
2021/11/05 02:23:04;;;;;;;2.2;1.4;;;;;;;;;;;;;
2021/11/05 02:25:27;;;;;;;1.5;1.3;;;;;;;;;;;;;
2021/11/05 02:27:53;;;;;;;1.7;1.3;;;;;;;;;;;;;
2021/11/05 02:30:17;;;;;;;2.5;1.6;;;;;;;;;;;;;
2021/11/05 02:32:43;;;;;;;3.5;1.3;;;;;;;;;;;;;
2021/11/05 02:35:08;;;;;;;2;1.4;;;;;;;;;;;;;
2021/11/05 02:37:34;;;;;;;2.3;1.3;;;;;;;;;;;;;
2021/11/05 02:39:59;;;;;;;1.7;1.3;;;;;;;;;;;;;
2021/11/05 02:42:24;;;;;;;1.9;1.4;;;;;;;;;;;;;
2021/11/05 02:44:49;;;;;;;2.1;1.3;;;;;;;;;;;;;
2021/11/05 02:47:14;;;;;;;2.8;1.9;;;;;;;;;;;;;
2021/11/05 02:49:40;;;;;;;1.6;1.4;;;;;;;;;;;;;
2021/11/05 02:52:05;;;;;;;2.3;1.7;;;;;;;;;;;;;
2021/11/05 02:54:30;;;;;;;3.8;1.5;;;;;;;;;;;;;
2021/11/05 02:56:56;;;;;;;2.4;1.5;;;;;;;;;;;;;
2021/11/05 02:59:20;;;;;;;1.5;1.4;;;;;;;;;;;;;
2021/11/05 03:01:46;;;;;;;1.3;1.2;;;;;;;;;;;;;
2021/11/05 03:04:11;;;;;;;2;1.3;;;;;;;;;;;;;
2021/11/05 03:06:36;;;;;;;2.3;1.2;;;;;;;;;;;;;
2021/11/05 03:09:01;;;;;;;2;1.5;;;;;;;;;;;;;
2021/11/05 03:11:27;;;;;;;1.8;1.4;;;;;;;;;;;;;
2021/11/05 03:13:52;;;;;;;1.4;1.3;;;;;;;;;;;;;
2021/11/05 03:16:18;;;;;;;1.5;1.2;;;;;;;;;;;;;
2021/11/05 03:18:44;;;;;;;1.3;1.1;;;;;;;;;;;;;
2021/11/05 03:21:08;;;;;;;1.5;1.4;;;;;;;;;;;;;
2021/11/05 03:23:33;;;;;;;1.3;1.2;;;;;;;;;;;;;
2021/11/05 03:25:59;;;;;;;1.3;1.2;;;;;;;;;;;;;
2021/11/05 03:28:24;;;;;;;1.5;1.4;;;;;;;;;;;;;
2021/11/05 03:30:49;;;;;;;1.4;1.3;;;;;;;;;;;;;
2021/11/05 03:33:14;;;;;;;1.8;1.5;;;;;;;;;;;;;
2021/11/05 03:35:39;;;;;;;1.9;1.4;;;;;;;;;;;;;
2021/11/05 03:38:04;;;;;;;3.3;1.7;;;;;;;;;;;;;
2021/11/05 03:40:32;;;;;;;3.5;1.5;;;;;;;;;;;;;
2021/11/05 03:42:55;;;;;;;3.9;1.9;;;;;;;;;;;;;
2021/11/05 03:45:20;;;;;;;3.7;1.9;;;;;;;;;;;;;
2021/11/05 03:47:45;;;;;;;4.6;2.4;;;;;;;;;;;;;
2021/11/05 03:50:13;;;;;;;3.4;1.9;;;;;;;;;;;;;
2021/11/05 03:52:38;;;;;;;2.6;1.7;;;;;;;;;;;;;
2021/11/05 03:55:03;;;;;;;1.7;1.2;;;;;;;;;;;;;
2021/11/05 03:57:28;;;;;;;2.3;1.5;;;;;;;;;;;;;
2021/11/05 03:59:53;;;;;;;3.1;1.7;;;;;;;;;;;;;
2021/11/05 04:02:30;;;;;;;2.7;1.8;;;;;;;0.44;94.64941;938.2115;;;;
2021/11/05 04:04:56;;;;;;;2.6;1.4;;;;;;;0.49;94.43848;938.2352;;;;
2021/11/05 04:07:20;;;;;;;2.8;1.8;;;;;;;0.47;94.37695;938.2612;;;;
2021/11/05 04:09:45;;;;;;;5.5;2.2;;;;;;;0.37;94.75586;938.1844;;;;
2021/11/05 04:12:11;;;;;;;8.2;1.9;;;;;;;0.47;94.63574;938.3335;;;;
2021/11/05 04:14:36;;;;;;;5.7;2.5;;;;;;;0.6;94.13965;938.3331;;;;
2021/11/05 04:17:02;;;;;;;6.4;2.7;;;;;;;0.58;93.66699;938.3356;;;;
2021/11/05 04:19:27;;;;;;;2.3;1.9;;;;;;;0.51;93.62891;938.4028;;;;
2021/11/05 04:21:52;;;;;;;3.5;1.8;;;;;;;0.47;93.63184;938.3893;;;;
2021/11/05 04:24:18;;;;;;;2.9;1.8;;;;;;;0.44;93.79297;938.3503;;;;
2021/11/05 04:26:44;;;;;;;1.9;1.5;;;;;;;0.31;94.37598;938.4174;;;;
2021/11/05 04:29:09;;;;;;;1.9;1.5;;;;;;;0.38;94.74902;938.463;;;;
2021/11/05 04:31:35;;;;;;;2.4;1.4;;;;;;;0.47;94.53516;938.5114;;;;
2021/11/05 04:34:00;;;;;;;4.6;1.8;;;;;;;0.53;94.2373;938.5551;;;;
2021/11/05 04:36:26;;;;;;;2.2;1.3;;;;;;;0.6;94.2627;938.5291;;;;
2021/11/05 04:38:51;;;;;;;2.1;1.2;;;;;;;0.51;94.38672;938.5359;;;;
2021/11/05 04:41:17;;;;;;;1.8;1.4;;;;;;;0.54;94.43945;938.5587;;;;
2021/11/05 04:43:43;;;;;;;3;1.7;;;;;;;0.57;94.47949;938.5695;;;;
2021/11/05 04:46:10;;;;;;;2.2;1.8;;;;;;;0.62;94.18848;938.5428;;;;
2021/11/05 04:48:35;;;;;;;4.3;2.1;;;;;;;0.63;93.95605;938.6266;;;;
2021/11/05 04:51:01;;;;;;;3.9;2.1;;;;;;;0.74;93.17676;938.6237;;;;
2021/11/05 04:53:26;;;;;;;2.6;1.8;;;;;;;0.87;92.71387;938.6627;;;;
2021/11/05 04:55:52;;;;;;;3.2;1.8;;;;;;;1.03;92.13672;938.6864;;;;
2021/11/05 04:58:17;;;;;;;3.1;2;;;;;;;1.1;91.76172;938.709;;;;
2021/11/05 05:00:43;;;;;;;4.1;1.8;;;;;;;1.1;91.52734;938.753;;;;
2021/11/05 05:03:08;;;;;;;5.2;1.6;;;;;;;1.16;91.5166;938.7925;;;;
2021/11/05 05:05:34;;;;;;;4.8;2.1;;;;;;;1.25;90.98828;938.8289;;;;
2021/11/05 05:07:59;;;;;;;3.5;1.9;;;;;;;1.15;90.5293;938.8356;;;;
2021/11/05 05:10:25;;;;;;;3.6;2.3;;;;;;;1.17;90.98047;938.8555;;;;
2021/11/05 05:12:49;;;;;;;3.8;2.4;;;;;;;1.1;90.8457;938.8822;;;;
2021/11/05 05:15:16;;;;;;;9.7;3;;;;;;;1.01;91.66211;938.9746;;;;
2021/11/05 05:17:41;;;;;;;5.9;2.7;;;;;;;0.95;91.93848;938.9556;;;;
2021/11/05 05:20:07;;;;;;;5.7;2.8;;;;;;;0.89;92.5293;938.8965;;;;
2021/11/05 05:22:31;;;;;;;7.5;3.6;;;;;;;0.84;92.97559;938.8933;;;;
2021/11/05 05:24:57;;;;;;;5.5;3;;;;;;;0.76;92.90332;939.0464;;;;
2021/11/05 05:27:22;;;;;;;5.6;2.6;;;;;;;0.72;93.25293;939.0211;;;;
2021/11/05 05:29:50;;;;;;;5.6;2.5;;;;;;;0.65;93.25684;938.9908;;;;
2021/11/05 05:32:13;;;;;;;2.6;1.7;;;;;;;0.65;94.19434;939.0271;;;;
2021/11/05 05:34:39;;;;;;;4.4;2.1;;;;;;;0.75;93.76074;938.9692;;;;
2021/11/05 05:37:04;;;;;;;2.4;1.5;;;;;;;0.87;93.56543;939.1044;;;;
2021/11/05 05:42:16;;;;;;;2.3;2;;;;;;;1;92.91016;939.1038;;;;
2021/11/05 05:44:41;;;;;;;1.7;1.6;;;;;;;1.03;92.53906;939.1603;;;;
2021/11/05 05:47:07;;;;;;;3;1.6;;;;;;;1.02;92.33594;939.1867;;;;
2021/11/05 05:49:43;;;;;;;4;2.2;;;;;;;0.94;92.54102;939.1937;;;;
2021/11/05 05:52:08;;;;;;;5.8;2.9;;;;;;;0.97;92.84668;939.2466;;;;
2021/11/05 05:54:33;;;;;;;7.3;3.7;;;;;;;0.88;93.18652;939.2698;;;;
2021/11/05 05:56:59;;;;;;;15;3.9;;;;;;;0.77;93.34082;939.2596;;;;
2021/11/05 05:59:23;;;;;;;10.4;4.1;;;;;;;0.81;93.66113;939.3711;;;;
2021/11/05 06:01:48;;;;;;;12.1;4.3;;;;;;;0.93;93.60938;939.3273;;;;
2021/11/05 06:04:14;;;;;;;8.8;4.1;;;;;;;1.01;92.89063;939.4384;;;;
2021/11/05 06:06:39;;;;;;;6.6;4.1;;;;;;;0.94;92.68652;939.4846;;;;
2021/11/05 06:09:07;;;;;;;3.5;2.6;;;;;;;0.96;92.85645;939.4744;;;;
2021/11/05 06:11:31;;;;;;;4.2;2.3;;;;;;;0.93;92.91699;939.5294;;;;
2021/11/05 06:13:58;;;;;;;2;1.8;;;;;;;0.95;93.0127;939.5666;;;;
2021/11/05 06:16:22;;;;;;;4.2;2.1;;;;;;;1.04;92.88477;939.5637;;;;
2021/11/05 06:18:49;;;;;;;6.9;2.7;;;;;;;1.11;93.05762;939.6088;;;;
2021/11/05 06:21:13;;;;;;;3.3;1.9;;;;;;;1.29;92.42676;939.5577;;;;
2021/11/05 06:23:41;;;;;;;2.7;2;;;;;;;1.37;92.07715;939.6903;;;;
2021/11/05 06:31:33;;;;;;;2.9;1.7;;;;;;;1.2;92.99902;939.7586;;;;
2021/11/05 06:33:58;;;;;;;6.4;2.7;;;;;;;1.32;92.90137;939.8295;;;;
2021/11/05 06:36:23;;;;;;;2.8;2.3;;;;;;;1.37;93.35156;939.7906;;;;
2021/11/05 06:38:49;;;;;;;2.5;2;;;;;;;1.42;92.5791;939.9037;;;;
2021/11/05 06:41:15;;;;;;;5.2;2;;;;;;;1.43;92.50488;939.9465;;;;
2021/11/05 06:43:39;;;;;;;5.6;3.3;;;;;;;1.47;92.08594;939.979;;;;
2021/11/05 06:46:06;;;;;;;7.2;3.6;;;;;;;1.66;91.99512;939.9677;;;;
2021/11/05 06:48:31;;;;;;;7.1;3.4;;;;;;;1.85;91.34082;940.025;;;;
2021/11/05 06:50:57;;;;;;;3.9;2.4;;;;;;;2;90.39941;940.0306;;;;
2021/11/05 06:53:22;;;;;;;4;2.4;;;;;;;2.13;89.37402;940.028;;;;
2021/11/05 06:55:48;;;;;;;3.4;2.6;;;;;;;2.28;88.29785;940.0719;;;;
2021/11/05 06:58:13;;;;;;;7;2.5;;;;;;;2.2;88.39355;939.998;;;;
2021/11/05 07:00:39;;;;;;;4.7;3;;;;;;;2.12;88.78125;940.0914;;;;
2021/11/05 07:03:05;;;;;;;9.7;3;;;;;;;2.07;89.21777;940.1424;;;;
2021/11/05 07:05:32;;;;;;;6;3.5;;;;;;;1.93;89.69043;940.2004;;;;
2021/11/05 07:07:56;;;;;;;8.4;4.1;;;;;;;1.73;90.62207;940.3206;;;;
2021/11/05 07:10:21;;;;;;;12.1;4;;;;;;;1.77;90.92188;940.2747;;;;
2021/11/05 07:12:50;;;;;;;4.8;3.3;;;;;;;1.85;90.70313;940.3897;;;;
2021/11/05 07:15:12;;;;;;;4.7;2.8;;;;;;;1.88;90.56543;940.4755;;;;
2021/11/05 07:17:37;;;;;;;4.3;2.6;;;;;;;1.89;90.87109;940.4995;;;;
2021/11/05 07:20:02;;;;;;;4.8;3.1;;;;;;;1.93;90.6084;940.5229;;;;
2021/11/05 07:22:28;;;;;;;5.5;3.2;;;;;;;1.95;90.76855;940.498;;;;
2021/11/05 07:24:53;;;;;;;5.1;3.1;;;;;;;2.11;90.34473;940.5558;;;;
2021/11/05 07:27:19;;;;;;;7.3;3.2;;;;;;;2.14;89.80176;940.5697;;;;
2021/11/05 07:29:44;;;;;;;9.3;3.6;;;;;;;2.05;89.92969;940.6632;;;;
2021/11/05 07:32:12;;;;;;;9.5;4;;;;;;;1.98;90.23926;940.6675;;;;
2021/11/05 07:34:37;;;;;;;6.5;3.1;;;;;;;2.01;90.15527;940.7366;;;;
2021/11/05 07:37:02;;;;;;;5.5;3.4;;;;;;;1.89;90.69922;940.7449;;;;
2021/11/05 07:39:27;;;;;;;6.1;4.3;;;;;;;1.84;91.17285;940.783;;;;
2021/11/05 07:41:53;;;;;;;8;4.4;;;;;;;1.89;90.81543;940.8448;;;;
2021/11/05 07:44:17;;;;;;;12.3;4.1;;;;;;;2.11;90.14355;940.8887;;;;
2021/11/05 07:46:46;;;;;;;12.4;5.5;;;;;;;2.08;89.46582;940.9763;;;;
2021/11/05 07:49:08;;;;;;;14.6;6.3;;;;;;;2.08;89.75488;941.0153;;;;
2021/11/05 07:51:32;;;;;;;7.6;3.6;;;;;;;2.02;89.48828;941.0033;;;;
2021/11/05 07:53:58;;;;;;;8.1;4.4;;;;;;;2.17;89.12598;940.9536;;;;
2021/11/05 07:56:23;;;;;;;9.3;4.5;;;;;;;2.25;89.09863;941.044;;;;
2021/11/05 07:58:48;;;;;;;6.8;4.3;;;;;;;2.65;88.03906;941.1399;;;;
2021/11/05 08:01:13;;;;;;;4.6;3.6;;;;;;;2.91;86.80371;941.159;;;;
2021/11/05 08:03:38;;;;;;;4.7;3.1;;;;;;;3.17;84.79004;941.2378;;;;
2021/11/05 08:06:03;;;;;;;4.2;3;;;;;;;3.13;85.44629;941.2278;;;;
2021/11/05 08:08:29;;;;;;;7.5;2.3;;;;;;;4.46;83.87695;941.2503;;;;
2021/11/05 08:10:54;;;;;;;3;2.4;;;;;;;5.45;74.58301;941.1967;;;;
2021/11/05 08:13:20;;;;;;;2.4;1.8;;;;;;;6.58;71.20605;941.2097;;;;
2021/11/05 08:15:44;;;;;;;2.2;1.7;;;;;;;7.75;66.16992;941.1888;;;;
2021/11/05 08:18:09;;;;;;;1.5;1.4;;;;;;;8.62;61.2002;941.2605;;;;
2021/11/05 08:20:34;;;;;;;1.4;1.3;;;;;;;9.36;58.66309;941.277;;;;
2021/11/05 08:23:01;;;;;;;2.5;1.3;;;;;;;9.42;58.08008;941.3127;;;;
2021/11/05 08:25:28;;;;;;;5.2;2.1;;;;;;;7.99;61.33691;941.4312;;;;
2021/11/05 08:27:53;;;;;;;5.3;2.1;;;;;;;7.42;64.5332;941.4213;;;;
2021/11/05 08:30:20;;;;;;;4.4;2.2;;;;;;;7.57;63.25098;941.4764;;;;
2021/11/05 08:32:44;;;;;;;3.6;2;;;;;;;7.46;63.7793;941.4634;;;;
2021/11/05 08:35:10;;;;;;;5.8;2.5;;;;;;;7.42;63.44531;941.5195;;;;
2021/11/05 08:37:36;;;;;;;3.4;1.8;;;;;;;6.98;64.8291;941.5873;;;;
2021/11/05 08:40:01;;;;;;;5.5;2.1;;;;;;;6.46;67.125;941.5923;;;;
2021/11/05 08:42:28;;;;;;;2.4;1.7;;;;;;;5.99;69.68359;941.6266;;;;
2021/11/05 08:44:53;;;;;;;2.3;1.4;;;;;;;5.87;67.41699;941.6652;;;;
2021/11/05 08:47:23;;;;;;;6.9;2.1;;;;;;;5.8;69.25586;941.7028;;;;
2021/11/05 08:49:53;;;;;;;5.3;2;;;;;;;6.22;69.45117;941.7381;;;;
2021/11/05 08:52:16;;;;;;;1.9;1.3;;;;;;;6.38;70.16504;941.7003;;;;
2021/11/05 08:54:41;;;;;;;2.1;1.4;;;;;;;6.51;68.42188;941.6689;;;;
2021/11/05 08:57:06;;;;;;;1.5;1;;;;;;;6.61;66.57227;941.7932;;;;
2021/11/05 08:59:32;;;;;;;1;1;;;;;;;7.29;65.86133;941.785;;;;
2021/11/05 09:01:57;;;;;;;4.7;1.4;;;;;;;7.49;65.05273;941.785;;;;
2021/11/05 09:04:24;;;;;;;1.2;1.2;;;;;;;7.82;63.52637;941.8561;;;;
2021/11/05 09:06:50;;;;;;;2.5;1.1;;;;;;;8.01;61.71387;941.8686;;;;
2021/11/05 09:09:15;;;;;;;3.4;1.3;;;;;;;7.66;63.48926;941.9109;;;;
2021/11/05 09:11:40;;;;;;;5;1.7;;;;;;;7.74;61.74512;941.9583;;;;
2021/11/05 09:14:07;;;;;;;2.3;1;;;;;;;7.62;62.27246;941.9608;;;;
2021/11/05 09:16:32;;;;;;;1.5;1.1;;;;;;;7.14;63.17676;941.9113;;;;
2021/11/05 09:18:58;;;;;;;4.4;1.4;;;;;;;6.8;63.89453;942.0709;;;;
2021/11/05 09:21:22;;;;;;;1.9;1;;;;;;;7.2;65.26855;942.0244;;;;
2021/11/05 09:23:47;;;;;;;1.6;1.3;;;;;;;6.62;64.75195;942.1124;;;;
2021/11/05 09:26:13;;;;;;;3.9;2;;;;;;;6.91;64.63672;942.1877;;;;
2021/11/05 09:28:38;;;;;;;2.3;1.3;;;;;;;7.01;64.75488;942.1911;;;;
2021/11/05 09:31:04;;;;;;;6.7;2;;;;;;;6.77;64.01563;942.2679;;;;
2021/11/05 09:33:31;;;;;;;1.6;1.1;;;;;;;6.99;64.74023;942.2836;;;;
2021/11/05 09:35:57;;;;;;;1.6;1;;;;;;;7.28;63.97852;942.2947;;;;
2021/11/05 09:38:22;;;;;;;0.9;0.9;;;;;;;7.48;65.3916;942.3181;;;;
2021/11/05 09:40:50;;;;;;;3.3;2.1;;;;;;;7.12;63.61523;942.3398;;;;
2021/11/05 09:43:13;;;;;;;1.7;0.9;;;;;;;7.15;64.18652;942.3764;;;;
2021/11/05 09:45:39;;;;;;;1.8;0.9;;;;;;;7.43;61.77832;942.3063;;;;
2021/11/05 09:48:04;;;;;;;1.9;1;;;;;;;7.55;61.91016;942.3516;;;;
2021/11/05 09:50:31;;;;;;;2;1;;;;;;;7.73;61.19922;942.2925;;;;
2021/11/05 09:52:55;;;;;;;1.2;1;;;;;;;8.05;60.34668;942.4155;;;;
2021/11/05 09:55:52;;;;;;;2.5;1.7;;;;;;;7.67;59.48828;942.3677;;;;
2021/11/05 09:58:18;;;;;;;2.7;1.4;;;;;;;7.73;60.8584;942.4281;;;;
2021/11/05 10:00:42;;;;;;;2.2;1.4;;;;;;;7.6;61.14551;942.3719;;;;
2021/11/05 10:03:08;;;;;;;1.7;1;;;;;;;7.12;61.58691;942.3738;;;;
2021/11/05 10:08:04;;;;;;;1.5;1.2;;;;;;;7.53;63.17578;942.3359;;;;
2021/11/05 10:17:10;;;;;;;2.6;0.8;;;;;;;8.76;58.15039;942.4402;;;;
2021/11/05 10:19:35;;;;;;;4.1;1.3;;;;;;;8.84;58.94434;942.3819;;;;
2021/11/05 10:25:31;;;;;;;1.2;1.1;;;;;;;9.07;57.22461;942.4199;;;;
2021/11/05 10:27:56;;;;;;;1.1;0.7;;;;;;;9.15;57.75879;942.3683;;;;
2021/11/05 10:30:22;;;;;;;0.7;0.7;;;;;;;8.86;58.31055;942.3839;;;;
2021/11/05 10:32:54;;;;;;;1.5;0.8;;;;;;;8.98;58.29297;942.389;;;;
2021/11/05 10:35:23;;;;;;;0.9;0.8;;;;;;;8.8;57.72266;942.3331;;;;
2021/11/05 10:37:48;;;;;;;1.7;0.8;;;;;;;9.16;57.03125;942.3853;;;;
2021/11/05 10:40:18;;;;;;;1.5;0.9;;;;;;;9.5;57.70313;942.3061;;;;
2021/11/05 10:42:45;;;;;;;3.6;0.9;;;;;;;9.34;55.49609;942.4036;;;;
2021/11/05 10:45:08;;;;;;;0.9;0.8;;;;;;;9.76;54.38672;942.3464;;;;
2021/11/05 10:53:39;;;;;;;1.4;0.8;;;;;;;9.23;53.89941;942.3798;;;;
2021/11/05 10:56:04;;;;;;;1.4;0.8;;;;;;;9.3;53.99805;942.4536;;;;
2021/11/05 10:58:30;;;;;;;2;0.9;;;;;;;9.74;53.71191;942.4001;;;;
2021/11/05 11:00:55;;;;;;;1;0.9;;;;;;;9.92;56.91504;942.3433;;;;
2021/11/05 11:03:20;;;;;;;3.9;1.9;;;;;;;9.66;58.61426;942.3326;;;;
2021/11/05 11:05:45;;;;;;;0.9;0.9;;;;;;;10;54.39453;942.3289;;;;
2021/11/05 11:08:10;;;;;;;1.1;0.8;;;;;;;10.18;54.83887;942.3094;;;;
2021/11/05 11:10:38;;;;;;;2;1.1;;;;;;;10.53;53.13672;942.2769;;;;
2021/11/05 11:13:02;;;;;;;1.6;1.1;;;;;;;10.52;51.43457;942.3055;;;;
2021/11/05 11:15:27;;;;;;;1.2;1.1;;;;;;;10.52;52.2793;942.342;;;;
2021/11/05 11:17:52;;;;;;;1.2;1.1;;;;;;;10.58;52.12598;942.3246;;;;
2021/11/05 11:20:18;;;;;;;2;1.5;;;;;;;10.66;52.33008;942.3254;;;;
2021/11/05 11:22:43;;;;;;;0.7;0.7;;;;;;;10.67;51.09766;942.324;;;;
2021/11/05 11:31:44;;;;;;;1;0.8;;;;;;;9.96;55.86133;942.3855;;;;
2021/11/05 11:34:09;;;;;;;1.1;0.7;;;;;;;9.86;53.88574;942.3867;;;;
2021/11/05 11:36:35;;;;;;;7.4;3.1;;;;;;;9.51;55.71094;942.3627;;;;
2021/11/05 11:38:59;;;;;;;3.2;1.6;;;;;;;9.34;56.49805;942.3964;;;;
2021/11/05 11:44:06;;;;;;;1;0.9;;;;;;;9.26;57.58008;942.4306;;;;
2021/11/05 11:46:31;;;;;;;1.2;0.9;;;;;;;9.36;55.46387;942.3921;;;;
2021/11/05 11:48:56;;;;;;;2.1;0.9;;;;;;;9.58;55.86914;942.4214;;;;
2021/11/05 11:51:23;;;;;;;3.8;1.4;;;;;;;9.22;54.80859;942.4266;;;;
2021/11/05 11:53:46;;;;;;;2.6;1.3;;;;;;;9.5;54.47852;942.407;;;;
2021/11/05 11:56:12;;;;;;;4.1;1.4;;;;;;;9.78;54.74219;942.4032;;;;
2021/11/05 11:58:37;;;;;;;1.9;1.2;;;;;;;9.96;52.95215;942.4355;;;;
2021/11/05 12:01:02;;;;;;;2.3;1.2;;;;;;;9.72;52.77539;942.4872;;;;
2021/11/05 12:03:28;;;;;;;3.4;1.4;;;;;;;9.55;53.9043;942.4709;;;;
2021/11/05 12:05:52;;;;;;;4.1;1.2;;;;;;;9.36;52.53613;942.4666;;;;
2021/11/05 12:08:17;;;;;;;5.4;2.7;;;;;;;9.71;53.7207;942.4378;;;;
2021/11/05 12:10:42;;;;;;;2.3;1.2;;;;;;;10.1;53.45996;942.3817;;;;
2021/11/05 12:13:07;;;;;;;2.2;1;;;;;;;9.93;54.17871;942.5112;;;;
2021/11/05 12:15:33;;;;;;;1.5;1;;;;;;;10.01;52.8916;942.5267;;;;
2021/11/05 12:17:58;;;;;;;2.1;1.2;;;;;;;9.88;51.46094;942.5328;;;;
2021/11/05 12:20:23;;;;;;;2.6;1.4;;;;;;;9.92;51.46582;942.6091;;;;
2021/11/05 12:22:48;;;;;;;1.5;0.8;;;;;;;10.14;49.7002;942.6323;;;;
2021/11/05 12:25:14;;;;;;;1.3;1.1;;;;;;;10.51;50.81641;942.5999;;;;
2021/11/05 12:27:39;;;;;;;1;0.8;;;;;;;10.38;48.13086;942.6125;;;;
2021/11/05 12:30:04;;;;;;;1;0.9;;;;;;;10.43;50.6709;942.5754;;;;
2021/11/05 12:32:30;;;;;;;1.7;0.9;;;;;;;11.22;48.62402;942.6181;;;;
2021/11/05 12:34:56;;;;;;;1.1;1;;;;;;;12.02;48.03711;942.5632;;;;
2021/11/05 12:37:19;;;;;;;1.2;1.1;;;;;;;12.29;44.83594;942.6493;;;;
2021/11/05 12:39:45;;;;;;;4.6;2.3;;;;;;;12.04;45.76074;942.5969;;;;
2021/11/05 12:42:10;;;;;;;4.8;2.2;;;;;;;12.18;49.11035;942.5751;;;;
2021/11/05 12:44:35;;;;;;;5;1.4;;;;;;;12.38;46.28906;942.6261;;;;
2021/11/05 12:47:00;;;;;;;2;1.3;;;;;;;12.53;46.09863;942.5847;;;;
2021/11/05 12:49:25;;;;;;;1.1;1;;;;;;;12.59;45.34863;942.5684;;;;
2021/11/05 12:51:50;;;;;;;0.9;0.8;;;;;;;12.49;45.85449;942.6019;;;;
2021/11/05 12:54:15;;;;;;;1;0.9;;;;;;;12.81;45.3252;942.5433;;;;
2021/11/05 12:56:42;;;;;;;2.6;0.9;;;;;;;13.02;44.6123;942.6182;;;;
2021/11/05 12:59:06;;;;;;;1.9;0.9;;;;;;;13.07;44.19238;942.5786;;;;
2021/11/05 13:01:32;;;;;;;1.8;0.8;;;;;;;13.2;43.79199;942.5957;;;;
2021/11/05 13:03:57;;;;;;;0.7;0.7;;;;;;;13.01;44.55469;942.6589;;;;
2021/11/05 13:06:22;;;;;;;0.8;0.8;;;;;;;12.94;44.52344;942.702;;;;
2021/11/05 13:08:47;;;;;;;1.1;1;;;;;;;12.52;45.17969;942.702;;;;
2021/11/05 13:11:12;;;;;;;2;1;;;;;;;12.32;45.46777;942.7198;;;;
2021/11/05 13:13:37;;;;;;;1.7;1;;;;;;;12.13;47.27051;942.6968;;;;
2021/11/05 13:16:03;;;;;;;1;0.9;;;;;;;12.1;46.94727;942.683;;;;
2021/11/05 13:18:28;;;;;;;1.3;1;;;;;;;12.11;46.16895;942.715;;;;
2021/11/05 13:20:54;;;;;;;1.1;1;;;;;;;12.01;45.7002;942.7416;;;;
2021/11/05 13:23:20;;;;;;;2.2;1.3;;;;;;;11.88;47.2207;942.7242;;;;
2021/11/05 13:25:45;;;;;;;0.9;0.9;;;;;;;11.73;47.92676;942.7234;;;;
2021/11/05 13:28:12;;;;;;;1.2;0.9;;;;;;;11.83;46.05957;942.6844;;;;
2021/11/05 13:30:36;;;;;;;2;1.2;;;;;;;11.84;46.93066;942.663;;;;
2021/11/05 13:33:01;;;;;;;1.9;1.3;;;;;;;11.89;47.0498;942.7035;;;;
2021/11/05 13:35:27;;;;;;;1.8;1.3;;;;;;;13.03;45.10645;942.7174;;;;
2021/11/05 13:37:52;;;;;;;2;0.9;;;;;;;15.77;39.85547;942.6534;;;;
2021/11/05 13:40:17;;;;;;;1.6;1;;;;;;;18.52;33.66406;942.5942;;;;
2021/11/05 13:42:43;;;;;;;1.2;1.1;;;;;;;20.37;30.74609;942.6075;;;;
2021/11/05 13:45:08;;;;;;;0.9;0.9;;;;;;;21.9;29.48047;942.6406;;;;
2021/11/05 13:47:33;;;;;;;1.1;1;;;;;;;23.75;26.00391;942.6111;;;;
2021/11/05 13:49:58;;;;;;;1.7;1.1;;;;;;;24.17;25.58008;942.5952;;;;
2021/11/05 13:52:25;;;;;;;1.4;1.1;;;;;;;24.96;23.86816;942.7109;;;;
2021/11/05 13:54:50;;;;;;;1.9;1.1;;;;;;;23.7;24.91797;942.6656;;;;
2021/11/05 13:57:15;;;;;;;1;0.9;;;;;;;22.92;25.71973;942.733;;;;
2021/11/05 13:59:41;;;;;;;1.3;1.2;;;;;;;22.65;26.43262;942.7731;;;;
2021/11/05 14:02:06;;;;;;;1.2;1.1;;;;;;;22.88;26.90332;942.8286;;;;
2021/11/05 14:04:31;;;;;;;1.4;1.2;;;;;;;22.51;26.18945;942.842;;;;
2021/11/05 14:06:57;;;;;;;1.2;0.9;;;;;;;22.39;26.45215;942.9108;;;;
2021/11/05 14:09:23;;;;;;;1.3;1.2;;;;;;;23.52;25.4375;942.8434;;;;
2021/11/05 14:11:49;;;;;;;1.2;1;;;;;;;24.26;24.10156;942.8649;;;;
2021/11/05 14:14:13;;;;;;;2;1.3;;;;;;;23.8;24.53516;942.8812;;;;
2021/11/05 14:16:38;;;;;;;1.1;1;;;;;;;21.69;27.37109;943.0041;;;;
2021/11/05 14:19:03;;;;;;;1.5;1.1;;;;;;;22.47;27.21973;942.9088;;;;
2021/11/05 14:21:28;;;;;;;2.1;1;;;;;;;23.68;25.8584;942.9447;;;;
2021/11/05 14:23:53;;;;;;;3.9;1.2;;;;;;;24.19;25.52246;942.986;;;;
2021/11/05 14:26:18;;;;;;;1.5;1;;;;;;;23.8;25.40723;943.0005;;;;
2021/11/05 14:28:46;;;;;;;1.5;1.1;;;;;;;24.2;24.98145;943.028;;;;
2021/11/05 14:31:17;;;;;;;1.6;0.8;;;;;;;24.53;24.52832;943.0446;;;;
2021/11/05 14:33:42;;;;;;;0.7;0.7;;;;;;;24.58;24.38965;943.0761;;;;
2021/11/05 14:36:07;;;;;;;1.5;0.6;;;;;;;24.6;24.50879;943.0502;;;;
2021/11/05 14:38:32;;;;;;;1;0.5;;;;;;;24.89;24.12402;943.0836;;;;
2021/11/05 14:40:58;;;;;;;2;1.2;;;;;;;25.32;23.83984;943.1647;;;;
2021/11/05 14:43:23;;;;;;;3;1.1;;;;;;;23;26.55957;943.1974;;;;
2021/11/05 14:45:48;;;;;;;2.2;1.2;;;;;;;21.88;28.19141;943.1973;;;;
2021/11/05 14:48:13;;;;;;;6.1;2.5;;;;;;;19.9;31.40137;943.235;;;;
2021/11/05 14:50:55;;;;;;;2.4;1.6;;;;;;;18.84;32.72266;943.2296;;;;
2021/11/05 14:53:20;;;;;;;2.8;1.6;;;;;;;15.12;39.62402;943.3596;;;;
2021/11/05 14:55:45;;;;;;;1.4;1.2;;;;;;;14.02;41.8252;943.3881;;;;
2021/11/05 14:58:10;;;;;;;4.7;1;;;;;;;13.45;43.59863;943.4578;;;;
2021/11/05 15:00:35;;;;;;;1.8;1;;;;;;;13.05;44.67285;943.4675;;;;
2021/11/05 15:03:00;;;;;;;2.7;1.2;;;;;;;12.47;45.80664;943.486;;;;
2021/11/05 15:05:26;;;;;;;3.3;1.4;;;;;;;11.99;47.61035;943.5027;;;;
2021/11/05 15:07:51;;;;;;;1.4;1.3;;;;;;;11.42;49.15039;943.558;;;;
2021/11/05 15:10:16;;;;;;;2;1;;;;;;;11.15;50.45703;943.5916;;;;
2021/11/05 15:12:41;;;;;;;2.9;1.6;;;;;;;10.87;51.49805;943.6131;;;;
2021/11/05 15:15:06;;;;;;;2;1.4;;;;;;;10.72;52.80664;943.6884;;;;
2021/11/05 15:17:31;;;;;;;2.9;1.5;;;;;;;10.57;53.33594;943.6814;;;;
2021/11/05 15:19:56;;;;;;;1.9;1.7;;;;;;;10.37;55.22852;943.7349;;;;
2021/11/05 15:22:21;;;;;;;2.9;1.4;;;;;;;10.25;55.00684;943.7308;;;;
2021/11/05 15:24:46;;;;;;;3.3;1.4;;;;;;;10.01;55.90137;943.7866;;;;
2021/11/05 15:27:12;;;;;;;3;1.4;;;;;;;9.95;57.12402;943.8505;;;;
2021/11/05 15:29:37;;;;;;;1.7;1.4;;;;;;;9.83;57.39258;943.8814;;;;
2021/11/05 15:32:04;;;;;;;2.5;1.4;;;;;;;9.72;58.33691;943.9138;;;;
2021/11/05 15:34:31;;;;;;;2.7;1.6;;;;;;;9.62;59.00684;943.9554;;;;
2021/11/05 15:36:54;;;;;;;1.6;1.5;;;;;;;9.55;60.25977;943.9686;;;;
2021/11/05 15:39:20;;;;;;;1.9;1.4;;;;;;;9.36;61.47559;943.9713;;;;
2021/11/05 15:41:45;;;;;;;3.8;1.8;;;;;;;9.22;62.40137;944.0412;;;;
2021/11/05 15:44:11;;;;;;;2.1;1.5;;;;;;;8.93;62.99707;944.0225;;;;
2021/11/05 15:46:37;;;;;;;1.3;1.2;;;;;;;8.57;62.05566;944.0244;;;;
2021/11/05 15:49:02;;;;;;;1.8;1.5;;;;;;;8.33;63.38672;944.0471;;;;
2021/11/05 15:51:27;;;;;;;1.7;1.3;;;;;;;8.32;63.24805;944.0952;;;;
2021/11/05 15:53:53;;;;;;;1.8;1.6;;;;;;;8.36;63.40039;944.0576;;;;
2021/11/05 15:56:18;;;;;;;1.7;1.4;;;;;;;8.19;64.87402;944.0983;;;;
2021/11/05 15:58:45;;;;;;;2;1.6;;;;;;;8.02;65.04297;944.0912;;;;
2021/11/05 16:01:09;;;;;;;1.8;1.4;;;;;;;7.88;65.29297;944.1163;;;;
2021/11/05 16:03:35;;;;;;;2.2;1.9;;;;;;;7.81;66.01953;944.158;;;;
2021/11/05 16:06:00;;;;;;;3;1.6;;;;;;;7.74;67.09766;944.1777;;;;
2021/11/05 16:08:26;;;;;;;1.7;1.6;;;;;;;7.61;67.31641;944.1553;;;;
2021/11/05 16:10:51;;;;;;;1.7;1.6;;;;;;;7.67;67.59766;944.2605;;;;
2021/11/05 16:13:16;;;;;;;2.1;1.7;;;;;;;7.71;67.25195;944.3092;;;;
2021/11/05 16:15:42;;;;;;;5.1;2.7;;;;;;;7.84;67.54395;944.2751;;;;